sensor_id;sensor_type;location;lat;lon;timestamp;temperature;humidity
13711;DHT22;6927;51.256;9.410;2024-03-02T00:00:21;4.50;99.90
13711;DHT22;6927;51.256;9.410;2024-03-02T00:02:48;4.50;99.90
13711;DHT22;6927;51.256;9.410;2024-03-02T00:05:16;4.50;99.90
13711;DHT22;6927;51.256;9.410;2024-03-02T00:07:44;4.50;99.90
13711;DHT22;6927;51.256;9.410;2024-03-02T00:10:12;4.50;99.90
13711;DHT22;6927;51.256;9.410;2024-03-02T00:12:40;4.50;99.90
13711;DHT22;6927;51.256;9.410;2024-03-02T00:18:06;4.40;99.90
13711;DHT22;6927;51.256;9.410;2024-03-02T00:20:32;4.40;99.90
13711;DHT22;6927;51.256;9.410;2024-03-02T00:23:05;4.50;99.90
13711;DHT22;6927;51.256;9.410;2024-03-02T00:25:42;4.50;99.90
13711;DHT22;6927;51.256;9.410;2024-03-02T00:28:22;4.50;99.90
13711;DHT22;6927;51.256;9.410;2024-03-02T00:31:08;4.60;99.90
13711;DHT22;6927;51.256;9.410;2024-03-02T00:33:37;4.60;99.90
13711;DHT22;6927;51.256;9.410;2024-03-02T00:36:05;4.60;99.90
13711;DHT22;6927;51.256;9.410;2024-03-02T00:38:31;4.60;99.90
13711;DHT22;6927;51.256;9.410;2024-03-02T00:41:04;4.60;99.90
13711;DHT22;6927;51.256;9.410;2024-03-02T00:46:22;4.60;99.90
13711;DHT22;6927;51.256;9.410;2024-03-02T00:48:59;4.60;99.90
13711;DHT22;6927;51.256;9.410;2024-03-02T00:51:27;4.60;99.90
13711;DHT22;6927;51.256;9.410;2024-03-02T00:53:54;4.60;99.90
13711;DHT22;6927;51.256;9.410;2024-03-02T00:56:22;4.60;99.90
13711;DHT22;6927;51.256;9.410;2024-03-02T00:58:52;4.60;99.90
13711;DHT22;6927;51.256;9.410;2024-03-02T01:01:18;4.70;99.90
13711;DHT22;6927;51.256;9.410;2024-03-02T01:03:45;4.60;99.90
13711;DHT22;6927;51.256;9.410;2024-03-02T01:06:11;4.60;99.90
13711;DHT22;6927;51.256;9.410;2024-03-02T01:08:37;4.70;99.90
13711;DHT22;6927;51.256;9.410;2024-03-02T01:11:03;4.70;99.90
13711;DHT22;6927;51.256;9.410;2024-03-02T01:13:29;4.70;99.90
13711;DHT22;6927;51.256;9.410;2024-03-02T01:15:55;4.60;99.90
13711;DHT22;6927;51.256;9.410;2024-03-02T01:18:24;4.70;99.90
13711;DHT22;6927;51.256;9.410;2024-03-02T01:20:50;4.70;99.90
13711;DHT22;6927;51.256;9.410;2024-03-02T01:23:24;4.70;99.90
13711;DHT22;6927;51.256;9.410;2024-03-02T01:25:50;4.70;99.90
13711;DHT22;6927;51.256;9.410;2024-03-02T01:28:18;4.70;99.90
13711;DHT22;6927;51.256;9.410;2024-03-02T01:30:46;4.70;99.90
13711;DHT22;6927;51.256;9.410;2024-03-02T01:33:11;4.70;99.90
13711;DHT22;6927;51.256;9.410;2024-03-02T01:35:37;4.60;99.90
13711;DHT22;6927;51.256;9.410;2024-03-02T01:38:03;4.70;99.90
13711;DHT22;6927;51.256;9.410;2024-03-02T01:40:29;4.60;99.90
13711;DHT22;6927;51.256;9.410;2024-03-02T01:42:55;4.60;99.90
13711;DHT22;6927;51.256;9.410;2024-03-02T01:45:23;4.50;99.90
13711;DHT22;6927;51.256;9.410;2024-03-02T01:47:49;4.50;99.90
13711;DHT22;6927;51.256;9.410;2024-03-02T01:50:15;4.50;99.90
13711;DHT22;6927;51.256;9.410;2024-03-02T01:52:41;4.40;99.90
13711;DHT22;6927;51.256;9.410;2024-03-02T01:55:07;4.40;56.00
13711;DHT22;6927;51.256;9.410;2024-03-02T01:57:33;4.40;78.00
13711;DHT22;6927;51.256;9.410;2024-03-02T02:00:00;4.40;93.10
13711;DHT22;6927;51.256;9.410;2024-03-02T02:02:25;4.30;45.40
13711;DHT22;6927;51.256;9.410;2024-03-02T02:04:51;4.30;43.30
13711;DHT22;6927;51.256;9.410;2024-03-02T02:07:18;4.30;54.50
13711;DHT22;6927;51.256;9.410;2024-03-02T02:09:44;4.30;58.20
13711;DHT22;6927;51.256;9.410;2024-03-02T02:12:10;4.30;58.20
13711;DHT22;6927;51.256;9.410;2024-03-02T02:14:36;4.30;99.90
13711;DHT22;6927;51.256;9.410;2024-03-02T02:17:02;4.20;99.90
13711;DHT22;6927;51.256;9.410;2024-03-02T02:19:28;4.30;99.90
13711;DHT22;6927;51.256;9.410;2024-03-02T02:21:54;4.20;99.90
13711;DHT22;6927;51.256;9.410;2024-03-02T02:24:20;4.10;99.90
13711;DHT22;6927;51.256;9.410;2024-03-02T02:26:45;4.10;99.90
13711;DHT22;6927;51.256;9.410;2024-03-02T02:29:11;4.10;99.90
13711;DHT22;6927;51.256;9.410;2024-03-02T02:31:37;4.10;99.90
13711;DHT22;6927;51.256;9.410;2024-03-02T02:34:04;4.10;99.90
13711;DHT22;6927;51.256;9.410;2024-03-02T02:36:30;4.10;99.90
13711;DHT22;6927;51.256;9.410;2024-03-02T02:38:56;4.00;99.90
13711;DHT22;6927;51.256;9.410;2024-03-02T02:41:21;3.90;99.90
13711;DHT22;6927;51.256;9.410;2024-03-02T02:43:47;4.00;99.90
13711;DHT22;6927;51.256;9.410;2024-03-02T02:46:13;4.00;99.90
13711;DHT22;6927;51.256;9.410;2024-03-02T02:48:38;4.00;99.90
13711;DHT22;6927;51.256;9.410;2024-03-02T02:51:04;4.00;99.90
13711;DHT22;6927;51.256;9.410;2024-03-02T02:53:30;4.10;99.90
13711;DHT22;6927;51.256;9.410;2024-03-02T02:55:55;4.10;99.90
13711;DHT22;6927;51.256;9.410;2024-03-02T02:58:21;4.20;99.90
13711;DHT22;6927;51.256;9.410;2024-03-02T03:00:46;4.20;99.90
13711;DHT22;6927;51.256;9.410;2024-03-02T03:03:12;4.10;99.90
13711;DHT22;6927;51.256;9.410;2024-03-02T03:05:37;4.20;99.90
13711;DHT22;6927;51.256;9.410;2024-03-02T03:08:03;4.20;99.90
13711;DHT22;6927;51.256;9.410;2024-03-02T03:10:29;4.20;99.90
13711;DHT22;6927;51.256;9.410;2024-03-02T03:12:54;4.10;99.90
13711;DHT22;6927;51.256;9.410;2024-03-02T03:15:21;4.20;99.90
13711;DHT22;6927;51.256;9.410;2024-03-02T03:17:47;4.10;99.90
13711;DHT22;6927;51.256;9.410;2024-03-02T03:20:12;4.10;99.90
13711;DHT22;6927;51.256;9.410;2024-03-02T03:22:38;4.10;99.90
13711;DHT22;6927;51.256;9.410;2024-03-02T03:25:05;4.10;99.90
13711;DHT22;6927;51.256;9.410;2024-03-02T03:27:30;4.10;99.90
13711;DHT22;6927;51.256;9.410;2024-03-02T03:29:56;4.20;99.90
13711;DHT22;6927;51.256;9.410;2024-03-02T03:32:22;4.20;99.90
13711;DHT22;6927;51.256;9.410;2024-03-02T03:34:48;4.10;99.90
13711;DHT22;6927;51.256;9.410;2024-03-02T03:37:14;4.10;99.90
13711;DHT22;6927;51.256;9.410;2024-03-02T03:39:39;4.00;99.90
13711;DHT22;6927;51.256;9.410;2024-03-02T03:42:05;3.90;99.90
13711;DHT22;6927;51.256;9.410;2024-03-02T03:44:31;3.90;99.90
13711;DHT22;6927;51.256;9.410;2024-03-02T03:46:56;3.80;99.90
13711;DHT22;6927;51.256;9.410;2024-03-02T03:49:22;3.80;99.90
13711;DHT22;6927;51.256;9.410;2024-03-02T03:51:47;3.70;99.90
13711;DHT22;6927;51.256;9.410;2024-03-02T03:54:13;3.70;99.90
13711;DHT22;6927;51.256;9.410;2024-03-02T03:56:38;3.60;99.90
13711;DHT22;6927;51.256;9.410;2024-03-02T03:59:04;3.50;99.90
13711;DHT22;6927;51.256;9.410;2024-03-02T04:01:30;3.40;99.90
13711;DHT22;6927;51.256;9.410;2024-03-02T04:03:57;3.30;99.90
13711;DHT22;6927;51.256;9.410;2024-03-02T04:06:24;3.20;99.90
13711;DHT22;6927;51.256;9.410;2024-03-02T04:08:49;3.20;99.90
13711;DHT22;6927;51.256;9.410;2024-03-02T04:11:15;3.10;99.90
13711;DHT22;6927;51.256;9.410;2024-03-02T04:13:40;3.00;99.90
13711;DHT22;6927;51.256;9.410;2024-03-02T04:16:06;3.00;99.90
13711;DHT22;6927;51.256;9.410;2024-03-02T04:18:31;3.00;99.90
13711;DHT22;6927;51.256;9.410;2024-03-02T04:20:58;2.90;99.90
13711;DHT22;6927;51.256;9.410;2024-03-02T04:23:25;2.90;99.90
13711;DHT22;6927;51.256;9.410;2024-03-02T04:25:50;2.80;99.90
13711;DHT22;6927;51.256;9.410;2024-03-02T04:28:16;2.80;99.90
13711;DHT22;6927;51.256;9.410;2024-03-02T04:30:42;2.70;99.90
13711;DHT22;6927;51.256;9.410;2024-03-02T04:33:07;2.60;99.90
13711;DHT22;6927;51.256;9.410;2024-03-02T04:35:38;2.60;99.90
13711;DHT22;6927;51.256;9.410;2024-03-02T04:38:03;2.50;99.90
13711;DHT22;6927;51.256;9.410;2024-03-02T04:40:29;2.40;99.90
13711;DHT22;6927;51.256;9.410;2024-03-02T04:42:54;2.40;99.90
13711;DHT22;6927;51.256;9.410;2024-03-02T04:45:20;2.40;99.90
13711;DHT22;6927;51.256;9.410;2024-03-02T04:47:45;2.40;99.90
13711;DHT22;6927;51.256;9.410;2024-03-02T04:50:11;2.30;99.90
13711;DHT22;6927;51.256;9.410;2024-03-02T04:52:37;2.30;99.90
13711;DHT22;6927;51.256;9.410;2024-03-02T04:55:03;2.20;99.90
13711;DHT22;6927;51.256;9.410;2024-03-02T04:57:47;2.20;99.90
13711;DHT22;6927;51.256;9.410;2024-03-02T05:00:13;2.20;99.90
13711;DHT22;6927;51.256;9.410;2024-03-02T05:02:39;2.10;99.90
13711;DHT22;6927;51.256;9.410;2024-03-02T05:05:04;2.20;99.90
13711;DHT22;6927;51.256;9.410;2024-03-02T05:07:30;2.10;99.90
13711;DHT22;6927;51.256;9.410;2024-03-02T05:09:55;2.20;99.90
13711;DHT22;6927;51.256;9.410;2024-03-02T05:12:21;2.10;99.90
13711;DHT22;6927;51.256;9.410;2024-03-02T05:15:06;2.10;99.90
13711;DHT22;6927;51.256;9.410;2024-03-02T05:17:32;2.00;99.90
13711;DHT22;6927;51.256;9.410;2024-03-02T05:19:58;2.00;99.90
13711;DHT22;6927;51.256;9.410;2024-03-02T05:22:24;2.00;99.90
13711;DHT22;6927;51.256;9.410;2024-03-02T05:24:49;2.00;99.90
13711;DHT22;6927;51.256;9.410;2024-03-02T05:27:15;2.00;99.90
13711;DHT22;6927;51.256;9.410;2024-03-02T05:29:41;2.00;99.90
13711;DHT22;6927;51.256;9.410;2024-03-02T05:32:07;2.00;99.90
13711;DHT22;6927;51.256;9.410;2024-03-02T05:34:33;2.00;99.90
13711;DHT22;6927;51.256;9.410;2024-03-02T05:37:01;2.00;99.90
13711;DHT22;6927;51.256;9.410;2024-03-02T05:39:29;2.00;99.90
13711;DHT22;6927;51.256;9.410;2024-03-02T05:41:55;2.00;99.90
13711;DHT22;6927;51.256;9.410;2024-03-02T05:44:20;1.90;99.90
13711;DHT22;6927;51.256;9.410;2024-03-02T05:46:47;1.90;99.90
13711;DHT22;6927;51.256;9.410;2024-03-02T05:49:13;1.90;99.90
13711;DHT22;6927;51.256;9.410;2024-03-02T05:51:38;1.90;99.90
13711;DHT22;6927;51.256;9.410;2024-03-02T05:54:04;1.90;99.90
13711;DHT22;6927;51.256;9.410;2024-03-02T05:56:29;1.80;99.90
13711;DHT22;6927;51.256;9.410;2024-03-02T05:58:55;1.80;99.90
13711;DHT22;6927;51.256;9.410;2024-03-02T06:01:39;1.80;99.90
13711;DHT22;6927;51.256;9.410;2024-03-02T06:04:05;1.80;99.90
13711;DHT22;6927;51.256;9.410;2024-03-02T06:06:31;1.80;99.90
13711;DHT22;6927;51.256;9.410;2024-03-02T06:09:01;1.80;99.90
13711;DHT22;6927;51.256;9.410;2024-03-02T06:11:36;1.80;99.90
13711;DHT22;6927;51.256;9.410;2024-03-02T06:14:02;1.80;99.90
13711;DHT22;6927;51.256;9.410;2024-03-02T06:16:28;1.80;99.90
13711;DHT22;6927;51.256;9.410;2024-03-02T06:18:53;1.80;99.90
13711;DHT22;6927;51.256;9.410;2024-03-02T06:21:19;1.80;99.90
13711;DHT22;6927;51.256;9.410;2024-03-02T06:23:45;1.90;99.90
13711;DHT22;6927;51.256;9.410;2024-03-02T06:26:11;1.90;99.90
13711;DHT22;6927;51.256;9.410;2024-03-02T06:28:38;1.90;99.90
13711;DHT22;6927;51.256;9.410;2024-03-02T06:31:03;1.90;99.90
13711;DHT22;6927;51.256;9.410;2024-03-02T06:33:29;1.90;99.90
13711;DHT22;6927;51.256;9.410;2024-03-02T06:35:55;1.90;99.90
13711;DHT22;6927;51.256;9.410;2024-03-02T06:38:20;2.00;99.90
13711;DHT22;6927;51.256;9.410;2024-03-02T06:40:46;2.00;99.90
13711;DHT22;6927;51.256;9.410;2024-03-02T06:43:12;2.10;99.90
13711;DHT22;6927;51.256;9.410;2024-03-02T06:45:37;2.20;99.90
13711;DHT22;6927;51.256;9.410;2024-03-02T06:48:03;2.20;99.90
13711;DHT22;6927;51.256;9.410;2024-03-02T06:50:28;2.30;99.90
13711;DHT22;6927;51.256;9.410;2024-03-02T06:52:54;2.30;99.90
13711;DHT22;6927;51.256;9.410;2024-03-02T06:55:21;2.40;99.90
13711;DHT22;6927;51.256;9.410;2024-03-02T06:57:47;2.50;99.90
13711;DHT22;6927;51.256;9.410;2024-03-02T07:00:13;2.60;99.90
13711;DHT22;6927;51.256;9.410;2024-03-02T07:02:39;2.80;99.90
13711;DHT22;6927;51.256;9.410;2024-03-02T07:05:07;3.00;99.90
13711;DHT22;6927;51.256;9.410;2024-03-02T07:07:33;3.00;99.90
13711;DHT22;6927;51.256;9.410;2024-03-02T07:10:00;3.00;99.90
13711;DHT22;6927;51.256;9.410;2024-03-02T07:12:26;3.10;99.90
13711;DHT22;6927;51.256;9.410;2024-03-02T07:14:51;3.20;99.90
13711;DHT22;6927;51.256;9.410;2024-03-02T07:17:29;3.30;99.90
13711;DHT22;6927;51.256;9.410;2024-03-02T07:19:56;3.50;99.90
13711;DHT22;6927;51.256;9.410;2024-03-02T07:22:21;3.60;99.90
13711;DHT22;6927;51.256;9.410;2024-03-02T07:24:48;3.80;99.90
13711;DHT22;6927;51.256;9.410;2024-03-02T07:27:15;4.00;99.90
13711;DHT22;6927;51.256;9.410;2024-03-02T07:29:40;4.20;99.90
13711;DHT22;6927;51.256;9.410;2024-03-02T07:32:07;4.30;99.90
13711;DHT22;6927;51.256;9.410;2024-03-02T07:34:33;4.40;99.90
13711;DHT22;6927;51.256;9.410;2024-03-02T07:36:58;4.50;99.90
13711;DHT22;6927;51.256;9.410;2024-03-02T07:39:24;4.70;99.90
13711;DHT22;6927;51.256;9.410;2024-03-02T07:41:50;4.90;99.90
13711;DHT22;6927;51.256;9.410;2024-03-02T07:44:16;5.10;99.90
13711;DHT22;6927;51.256;9.410;2024-03-02T07:46:42;5.30;99.90
13711;DHT22;6927;51.256;9.410;2024-03-02T07:49:08;5.50;99.90
13711;DHT22;6927;51.256;9.410;2024-03-02T07:51:34;5.60;99.90
13711;DHT22;6927;51.256;9.410;2024-03-02T07:54:00;5.70;99.90
13711;DHT22;6927;51.256;9.410;2024-03-02T07:56:26;5.70;99.90
13711;DHT22;6927;51.256;9.410;2024-03-02T07:58:51;5.80;99.90
13711;DHT22;6927;51.256;9.410;2024-03-02T08:01:17;5.80;99.90
13711;DHT22;6927;51.256;9.410;2024-03-02T08:03:43;5.90;99.90
13711;DHT22;6927;51.256;9.410;2024-03-02T08:06:13;5.90;99.90
13711;DHT22;6927;51.256;9.410;2024-03-02T08:08:40;5.90;99.90
13711;DHT22;6927;51.256;9.410;2024-03-02T08:11:06;5.90;99.90
13711;DHT22;6927;51.256;9.410;2024-03-02T08:13:31;6.00;99.90
13711;DHT22;6927;51.256;9.410;2024-03-02T08:15:57;6.00;99.90
13711;DHT22;6927;51.256;9.410;2024-03-02T08:18:23;6.10;99.90
13711;DHT22;6927;51.256;9.410;2024-03-02T08:20:49;6.20;99.90
13711;DHT22;6927;51.256;9.410;2024-03-02T08:23:14;6.30;99.90
13711;DHT22;6927;51.256;9.410;2024-03-02T08:25:40;6.40;99.90
13711;DHT22;6927;51.256;9.410;2024-03-02T08:28:06;6.50;99.90
13711;DHT22;6927;51.256;9.410;2024-03-02T08:30:31;6.60;99.90
13711;DHT22;6927;51.256;9.410;2024-03-02T08:32:57;6.80;99.90
13711;DHT22;6927;51.256;9.410;2024-03-02T08:35:22;6.90;99.90
13711;DHT22;6927;51.256;9.410;2024-03-02T08:37:48;7.10;99.90
13711;DHT22;6927;51.256;9.410;2024-03-02T08:40:15;7.30;99.90
13711;DHT22;6927;51.256;9.410;2024-03-02T08:42:40;7.40;99.90
13711;DHT22;6927;51.256;9.410;2024-03-02T08:45:25;7.60;99.90
13711;DHT22;6927;51.256;9.410;2024-03-02T08:55:07;8.10;93.70
13711;DHT22;6927;51.256;9.410;2024-03-02T08:57:33;8.20;75.60
13711;DHT22;6927;51.256;9.410;2024-03-02T08:59:59;8.40;60.80
13711;DHT22;6927;51.256;9.410;2024-03-02T09:02:25;8.40;29.20
13711;DHT22;6927;51.256;9.410;2024-03-02T09:04:51;8.50;15.60
13711;DHT22;6927;51.256;9.410;2024-03-02T09:07:16;8.50;15.20
13711;DHT22;6927;51.256;9.410;2024-03-02T09:09:42;8.50;27.80
13711;DHT22;6927;51.256;9.410;2024-03-02T09:12:07;8.60;9.00
13711;DHT22;6927;51.256;9.410;2024-03-02T09:14:35;8.50;8.00
13711;DHT22;6927;51.256;9.410;2024-03-02T09:17:02;8.60;26.40
13711;DHT22;6927;51.256;9.410;2024-03-02T09:19:27;8.70;10.60
13711;DHT22;6927;51.256;9.410;2024-03-02T09:21:53;8.80;1.00
13711;DHT22;6927;51.256;9.410;2024-03-02T09:24:20;8.90;1.00
13711;DHT22;6927;51.256;9.410;2024-03-02T09:26:46;9.00;1.00
13711;DHT22;6927;51.256;9.410;2024-03-02T09:29:12;9.00;1.00
13711;DHT22;6927;51.256;9.410;2024-03-02T09:31:41;8.90;1.00
13711;DHT22;6927;51.256;9.410;2024-03-02T09:34:07;8.90;1.00
13711;DHT22;6927;51.256;9.410;2024-03-02T09:36:33;8.90;1.00
13711;DHT22;6927;51.256;9.410;2024-03-02T09:38:58;8.90;1.00
13711;DHT22;6927;51.256;9.410;2024-03-02T09:41:24;8.90;1.00
13711;DHT22;6927;51.256;9.410;2024-03-02T09:43:50;9.00;1.00
13711;DHT22;6927;51.256;9.410;2024-03-02T09:46:16;9.10;1.00
13711;DHT22;6927;51.256;9.410;2024-03-02T09:48:41;9.30;1.00
13711;DHT22;6927;51.256;9.410;2024-03-02T09:51:08;9.60;1.00
13711;DHT22;6927;51.256;9.410;2024-03-02T09:53:34;9.90;1.00
13711;DHT22;6927;51.256;9.410;2024-03-02T09:56:00;10.50;1.00
13711;DHT22;6927;51.256;9.410;2024-03-02T09:58:26;11.00;1.00
13711;DHT22;6927;51.256;9.410;2024-03-02T10:00:51;11.60;1.00
13711;DHT22;6927;51.256;9.410;2024-03-02T10:03:18;11.90;1.00
13711;DHT22;6927;51.256;9.410;2024-03-02T10:05:44;12.40;1.00
13711;DHT22;6927;51.256;9.410;2024-03-02T10:08:13;12.80;1.00
13711;DHT22;6927;51.256;9.410;2024-03-02T10:10:40;13.50;1.00
13711;DHT22;6927;51.256;9.410;2024-03-02T10:13:10;13.90;1.00
13711;DHT22;6927;51.256;9.410;2024-03-02T10:15:37;13.70;1.00
13711;DHT22;6927;51.256;9.410;2024-03-02T10:18:09;13.70;1.00
13711;DHT22;6927;51.256;9.410;2024-03-02T10:20:35;13.70;1.00
13711;DHT22;6927;51.256;9.410;2024-03-02T10:25:36;13.40;99.90
13711;DHT22;6927;51.256;9.410;2024-03-02T10:28:02;13.00;99.90
13711;DHT22;6927;51.256;9.410;2024-03-02T10:30:30;12.70;1.00
13711;DHT22;6927;51.256;9.410;2024-03-02T10:32:56;12.90;1.00
13711;DHT22;6927;51.256;9.410;2024-03-02T10:35:24;12.60;1.00
13711;DHT22;6927;51.256;9.410;2024-03-02T10:37:52;12.50;1.00
13711;DHT22;6927;51.256;9.410;2024-03-02T10:40:21;12.30;1.00
13711;DHT22;6927;51.256;9.410;2024-03-02T10:42:50;12.30;1.00
13711;DHT22;6927;51.256;9.410;2024-03-02T10:45:17;12.50;1.00
13711;DHT22;6927;51.256;9.410;2024-03-02T10:47:44;12.30;1.00
13711;DHT22;6927;51.256;9.410;2024-03-02T10:50:14;12.00;1.00
13711;DHT22;6927;51.256;9.410;2024-03-02T10:52:39;12.20;1.00
13711;DHT22;6927;51.256;9.410;2024-03-02T10:55:06;12.40;1.00
13711;DHT22;6927;51.256;9.410;2024-03-02T10:57:54;13.10;1.00
13711;DHT22;6927;51.256;9.410;2024-03-02T11:00:24;13.20;1.00
13711;DHT22;6927;51.256;9.410;2024-03-02T11:03:06;13.30;1.00
13711;DHT22;6927;51.256;9.410;2024-03-02T11:05:36;13.70;1.00
13711;DHT22;6927;51.256;9.410;2024-03-02T11:08:08;13.90;1.00
13711;DHT22;6927;51.256;9.410;2024-03-02T11:10:41;14.30;1.00
13711;DHT22;6927;51.256;9.410;2024-03-02T11:13:09;14.70;1.00
13711;DHT22;6927;51.256;9.410;2024-03-02T11:15:36;14.70;1.00
13711;DHT22;6927;51.256;9.410;2024-03-02T11:18:04;15.10;1.00
13711;DHT22;6927;51.256;9.410;2024-03-02T11:20:32;15.60;1.00
13711;DHT22;6927;51.256;9.410;2024-03-02T11:23:07;16.60;1.00
13711;DHT22;6927;51.256;9.410;2024-03-02T11:25:34;17.20;1.00
13711;DHT22;6927;51.256;9.410;2024-03-02T11:28:10;18.00;99.90
13711;DHT22;6927;51.256;9.410;2024-03-02T11:33:04;18.30;99.90
13711;DHT22;6927;51.256;9.410;2024-03-02T11:35:45;17.90;99.90
13711;DHT22;6927;51.256;9.410;2024-03-02T11:38:14;17.60;99.90
13711;DHT22;6927;51.256;9.410;2024-03-02T11:40:40;17.20;99.90
13711;DHT22;6927;51.256;9.410;2024-03-02T11:43:06;17.10;99.90
13711;DHT22;6927;51.256;9.410;2024-03-02T11:45:33;16.70;99.90
13711;DHT22;6927;51.256;9.410;2024-03-02T11:47:59;16.60;99.90
13711;DHT22;6927;51.256;9.410;2024-03-02T11:50:36;16.30;99.90
13711;DHT22;6927;51.256;9.410;2024-03-02T11:53:05;16.20;99.90
13711;DHT22;6927;51.256;9.410;2024-03-02T11:55:35;15.80;99.90
13711;DHT22;6927;51.256;9.410;2024-03-02T11:58:05;15.40;99.90
13711;DHT22;6927;51.256;9.410;2024-03-02T12:00:31;15.40;99.90
13711;DHT22;6927;51.256;9.410;2024-03-02T12:03:15;15.30;99.90
13711;DHT22;6927;51.256;9.410;2024-03-02T12:05:41;15.20;1.00
13711;DHT22;6927;51.256;9.410;2024-03-02T12:08:07;15.00;1.00
13711;DHT22;6927;51.256;9.410;2024-03-02T12:10:34;14.80;1.00
13711;DHT22;6927;51.256;9.410;2024-03-02T12:13:06;14.60;1.00
13711;DHT22;6927;51.256;9.410;2024-03-02T12:15:37;14.70;1.00
13711;DHT22;6927;51.256;9.410;2024-03-02T12:18:03;14.60;1.00
13711;DHT22;6927;51.256;9.410;2024-03-02T12:20:31;14.30;1.00
13711;DHT22;6927;51.256;9.410;2024-03-02T12:23:00;14.10;1.00
13711;DHT22;6927;51.256;9.410;2024-03-02T12:25:26;14.00;99.90
13711;DHT22;6927;51.256;9.410;2024-03-02T12:27:55;14.00;99.90
13711;DHT22;6927;51.256;9.410;2024-03-02T12:30:21;14.00;1.00
13711;DHT22;6927;51.256;9.410;2024-03-02T12:32:48;14.10;1.00
13711;DHT22;6927;51.256;9.410;2024-03-02T12:35:14;14.20;1.00
13711;DHT22;6927;51.256;9.410;2024-03-02T12:37:44;14.30;99.90
13711;DHT22;6927;51.256;9.410;2024-03-02T12:40:11;14.70;99.90
13711;DHT22;6927;51.256;9.410;2024-03-02T12:42:38;14.70;1.00
13711;DHT22;6927;51.256;9.410;2024-03-02T12:45:04;14.80;1.00
13711;DHT22;6927;51.256;9.410;2024-03-02T12:47:30;14.80;1.00
13711;DHT22;6927;51.256;9.410;2024-03-02T12:49:55;14.40;1.00
13711;DHT22;6927;51.256;9.410;2024-03-02T12:52:21;14.40;1.00
13711;DHT22;6927;51.256;9.410;2024-03-02T12:54:47;14.60;1.00
13711;DHT22;6927;51.256;9.410;2024-03-02T12:57:19;14.70;1.00
13711;DHT22;6927;51.256;9.410;2024-03-02T12:59:45;14.90;1.00
13711;DHT22;6927;51.256;9.410;2024-03-02T13:02:17;14.90;1.00
13711;DHT22;6927;51.256;9.410;2024-03-02T13:04:43;15.10;1.00
13711;DHT22;6927;51.256;9.410;2024-03-02T13:07:08;15.10;1.00
13711;DHT22;6927;51.256;9.410;2024-03-02T13:09:35;15.30;1.00
13711;DHT22;6927;51.256;9.410;2024-03-02T13:12:01;15.30;1.00
13711;DHT22;6927;51.256;9.410;2024-03-02T13:14:32;15.30;1.00
13711;DHT22;6927;51.256;9.410;2024-03-02T13:16:58;15.60;1.00
13711;DHT22;6927;51.256;9.410;2024-03-02T13:19:25;15.60;1.00
13711;DHT22;6927;51.256;9.410;2024-03-02T13:21:50;15.50;1.00
13711;DHT22;6927;51.256;9.410;2024-03-02T13:24:16;15.70;1.00
13711;DHT22;6927;51.256;9.410;2024-03-02T13:26:42;15.70;1.00
13711;DHT22;6927;51.256;9.410;2024-03-02T13:29:07;15.70;1.00
13711;DHT22;6927;51.256;9.410;2024-03-02T13:31:33;15.50;1.00
13711;DHT22;6927;51.256;9.410;2024-03-02T13:33:58;15.80;1.00
13711;DHT22;6927;51.256;9.410;2024-03-02T13:36:24;16.00;1.00
13711;DHT22;6927;51.256;9.410;2024-03-02T13:38:50;16.00;1.00
13711;DHT22;6927;51.256;9.410;2024-03-02T13:41:15;16.00;99.90
13711;DHT22;6927;51.256;9.410;2024-03-02T13:43:41;15.60;99.90
13711;DHT22;6927;51.256;9.410;2024-03-02T13:46:06;15.10;99.90
13711;DHT22;6927;51.256;9.410;2024-03-02T13:48:32;14.90;99.90
13711;DHT22;6927;51.256;9.410;2024-03-02T13:50:58;14.80;99.90
13711;DHT22;6927;51.256;9.410;2024-03-02T13:53:23;15.10;99.90
13711;DHT22;6927;51.256;9.410;2024-03-02T13:55:49;15.20;99.90
13711;DHT22;6927;51.256;9.410;2024-03-02T13:58:15;15.20;99.90
13711;DHT22;6927;51.256;9.410;2024-03-02T14:00:40;15.40;99.90
13711;DHT22;6927;51.256;9.410;2024-03-02T14:03:06;15.30;99.90
13711;DHT22;6927;51.256;9.410;2024-03-02T14:05:32;15.00;99.90
13711;DHT22;6927;51.256;9.410;2024-03-02T14:07:58;14.80;99.90
13711;DHT22;6927;51.256;9.410;2024-03-02T14:10:26;14.70;99.90
13711;DHT22;6927;51.256;9.410;2024-03-02T14:12:52;15.10;99.90
13711;DHT22;6927;51.256;9.410;2024-03-02T14:15:18;15.20;99.90
13711;DHT22;6927;51.256;9.410;2024-03-02T14:17:43;14.80;99.90
13711;DHT22;6927;51.256;9.410;2024-03-02T14:20:09;14.60;99.90
13711;DHT22;6927;51.256;9.410;2024-03-02T14:22:37;14.40;99.90
13711;DHT22;6927;51.256;9.410;2024-03-02T14:25:03;14.40;99.90
13711;DHT22;6927;51.256;9.410;2024-03-02T14:27:29;14.50;1.00
13711;DHT22;6927;51.256;9.410;2024-03-02T14:29:54;14.50;99.90
13711;DHT22;6927;51.256;9.410;2024-03-02T14:32:20;14.50;99.90
13711;DHT22;6927;51.256;9.410;2024-03-02T14:34:46;14.40;99.90
13711;DHT22;6927;51.256;9.410;2024-03-02T14:37:13;14.30;99.90
13711;DHT22;6927;51.256;9.410;2024-03-02T14:39:39;14.10;99.90
13711;DHT22;6927;51.256;9.410;2024-03-02T14:42:04;14.00;99.90
13711;DHT22;6927;51.256;9.410;2024-03-02T14:44:30;14.00;99.90
13711;DHT22;6927;51.256;9.410;2024-03-02T14:46:56;14.00;99.90
13711;DHT22;6927;51.256;9.410;2024-03-02T14:49:24;14.70;99.90
13711;DHT22;6927;51.256;9.410;2024-03-02T14:51:50;15.10;99.90
13711;DHT22;6927;51.256;9.410;2024-03-02T14:54:15;15.50;99.90
13711;DHT22;6927;51.256;9.410;2024-03-02T14:56:41;16.00;99.90
13711;DHT22;6927;51.256;9.410;2024-03-02T14:59:06;16.60;99.90
13711;DHT22;6927;51.256;9.410;2024-03-02T15:01:32;16.70;99.90
13711;DHT22;6927;51.256;9.410;2024-03-02T15:03:58;16.70;99.90
13711;DHT22;6927;51.256;9.410;2024-03-02T15:06:23;16.60;99.90
13711;DHT22;6927;51.256;9.410;2024-03-02T15:08:49;16.60;99.90
13711;DHT22;6927;51.256;9.410;2024-03-02T15:11:15;16.80;99.90
13711;DHT22;6927;51.256;9.410;2024-03-02T15:13:40;16.80;99.90
13711;DHT22;6927;51.256;9.410;2024-03-02T15:16:07;16.70;99.90
13711;DHT22;6927;51.256;9.410;2024-03-02T15:18:32;16.50;99.90
13711;DHT22;6927;51.256;9.410;2024-03-02T15:21:00;16.60;99.90
13711;DHT22;6927;51.256;9.410;2024-03-02T15:23:25;16.90;99.90
13711;DHT22;6927;51.256;9.410;2024-03-02T15:25:51;16.50;99.90
13711;DHT22;6927;51.256;9.410;2024-03-02T15:28:16;16.10;99.90
13711;DHT22;6927;51.256;9.410;2024-03-02T15:30:42;15.80;99.90
13711;DHT22;6927;51.256;9.410;2024-03-02T15:33:08;15.40;99.90
13711;DHT22;6927;51.256;9.410;2024-03-02T15:35:33;15.20;99.90
13711;DHT22;6927;51.256;9.410;2024-03-02T15:37:59;14.90;99.90
13711;DHT22;6927;51.256;9.410;2024-03-02T15:40:25;14.50;99.90
13711;DHT22;6927;51.256;9.410;2024-03-02T15:42:50;14.30;99.90
13711;DHT22;6927;51.256;9.410;2024-03-02T15:45:16;14.20;99.90
13711;DHT22;6927;51.256;9.410;2024-03-02T15:47:42;14.30;99.90
13711;DHT22;6927;51.256;9.410;2024-03-02T15:50:08;14.30;99.90
13711;DHT22;6927;51.256;9.410;2024-03-02T15:52:33;14.30;99.90
13711;DHT22;6927;51.256;9.410;2024-03-02T15:54:59;14.60;99.90
13711;DHT22;6927;51.256;9.410;2024-03-02T15:57:25;14.90;99.90
13711;DHT22;6927;51.256;9.410;2024-03-02T15:59:50;14.90;99.90
13711;DHT22;6927;51.256;9.410;2024-03-02T16:02:16;14.60;99.90
13711;DHT22;6927;51.256;9.410;2024-03-02T16:04:42;14.40;99.90
13711;DHT22;6927;51.256;9.410;2024-03-02T16:07:08;14.10;99.90
13711;DHT22;6927;51.256;9.410;2024-03-02T16:09:34;13.90;99.90
13711;DHT22;6927;51.256;9.410;2024-03-02T16:12:00;13.80;99.90
13711;DHT22;6927;51.256;9.410;2024-03-02T16:14:25;13.60;99.90